createdAt,value
2018-04-02T00:00:11.635Z,99.90
2018-04-02T00:02:40.125Z,99.90
2018-04-02T00:05:08.950Z,99.90
2018-04-02T00:07:37.455Z,99.90
2018-04-02T00:10:06.365Z,99.90
2018-04-02T00:12:34.962Z,99.90
2018-04-02T00:15:03.427Z,99.90
2018-04-02T00:17:32.011Z,99.90
2018-04-02T00:20:01.602Z,99.90
2018-04-02T00:22:30.862Z,99.90
2018-04-02T00:24:59.763Z,99.90
2018-04-02T00:27:28.384Z,99.90
2018-04-02T00:29:57.663Z,99.90
2018-04-02T00:32:26.138Z,99.90
2018-04-02T00:34:54.746Z,99.90
2018-04-02T00:37:24.001Z,99.90
2018-04-02T00:39:53.294Z,99.90
2018-04-02T00:42:21.774Z,99.90
2018-04-02T00:44:50.358Z,99.90
2018-04-02T00:47:18.874Z,99.90
2018-04-02T00:49:47.355Z,99.90
2018-04-02T00:52:16.127Z,99.90
2018-04-02T00:54:44.907Z,99.90
2018-04-02T00:57:14.448Z,99.90
2018-04-02T00:59:44.219Z,99.90
2018-04-02T01:02:13.735Z,99.90
2018-04-02T01:04:43.555Z,99.90
2018-04-02T01:07:12.038Z,99.90
2018-04-02T01:09:40.802Z,99.90
2018-04-02T01:12:10.435Z,99.90
2018-04-02T01:14:39.293Z,99.90
2018-04-02T01:17:08.819Z,99.90
2018-04-02T01:19:38.482Z,99.90
2018-04-02T01:22:07.256Z,99.90
2018-04-02T01:24:36.079Z,99.90
2018-04-02T01:27:04.846Z,99.90
2018-04-02T01:29:33.996Z,99.90
2018-04-02T01:32:03.530Z,99.90
2018-04-02T01:34:32.410Z,99.90
2018-04-02T01:37:01.284Z,99.90
2018-04-02T01:39:30.955Z,99.90
2018-04-02T01:41:59.718Z,99.90
2018-04-02T01:44:28.507Z,99.90
2018-04-02T01:46:57.426Z,99.90
2018-04-02T01:49:26.275Z,99.90
2018-04-02T01:51:56.083Z,99.90
2018-04-02T01:54:24.878Z,99.90
2018-04-02T01:56:53.945Z,99.90
2018-04-02T01:59:22.813Z,99.90
2018-04-02T02:01:51.582Z,99.90
2018-04-02T02:04:20.357Z,99.90
2018-04-02T02:06:49.126Z,99.90
2018-04-02T02:09:18.660Z,99.90
2018-04-02T02:11:47.520Z,99.90
2018-04-02T02:14:16.703Z,99.90
2018-04-02T02:16:46.225Z,99.90
2018-04-02T02:19:15.757Z,99.90
2018-04-02T02:21:44.782Z,99.90
2018-04-02T02:24:13.599Z,99.90
2018-04-02T02:26:42.131Z,99.90
2018-04-02T02:29:10.879Z,99.90
2018-04-02T02:31:40.408Z,99.90
2018-04-02T02:34:09.296Z,99.90
2018-04-02T02:36:38.083Z,99.90
2018-04-02T02:39:07.267Z,99.90
2018-04-02T02:41:36.988Z,99.90
2018-04-02T02:44:07.451Z,99.90
2018-04-02T02:46:36.194Z,99.90
2018-04-02T02:49:05.743Z,99.90
2018-04-02T02:51:34.618Z,99.90
2018-04-02T02:54:03.383Z,99.90
2018-04-02T02:56:32.921Z,99.90
2018-04-02T02:59:01.776Z,99.90
2018-04-02T03:01:31.460Z,99.90
2018-04-02T03:04:00.234Z,99.90
2018-04-02T03:06:29.205Z,99.90
2018-04-02T03:08:57.986Z,99.90
2018-04-02T03:11:26.732Z,99.90
2018-04-02T03:13:55.260Z,99.90
2018-04-02T03:16:24.065Z,99.90
2018-04-02T03:18:52.834Z,99.90
2018-04-02T03:21:21.594Z,99.90
2018-04-02T03:23:50.417Z,99.90
2018-04-02T03:26:19.168Z,99.90
2018-04-02T03:28:47.942Z,99.90
2018-04-02T03:31:16.683Z,99.90
2018-04-02T03:33:45.466Z,99.90
2018-04-02T03:36:14.988Z,99.90
2018-04-02T03:38:43.757Z,99.90
2018-04-02T03:41:13.319Z,99.90
2018-04-02T03:43:42.084Z,99.90
2018-04-02T03:46:10.503Z,99.90
2018-04-02T03:48:39.267Z,99.90
2018-04-02T03:51:08.022Z,99.90
2018-04-02T03:53:36.654Z,99.90
2018-04-02T03:56:05.414Z,99.90
2018-04-02T03:58:34.223Z,99.90
2018-04-02T04:01:03.083Z,99.90
2018-04-02T04:03:31.842Z,99.90
2018-04-02T04:06:01.480Z,99.90
2018-04-02T04:08:30.982Z,99.90
2018-04-02T04:10:59.775Z,99.90
2018-04-02T04:13:28.637Z,99.90
2018-04-02T04:15:57.390Z,99.90
2018-04-02T04:18:27.523Z,99.90
2018-04-02T04:20:56.695Z,99.90
2018-04-02T04:23:26.630Z,99.90
2018-04-02T04:25:55.434Z,99.90
2018-04-02T04:28:24.176Z,99.90
2018-04-02T04:30:52.982Z,99.90
2018-04-02T04:33:22.648Z,99.90
2018-04-02T04:35:51.518Z,99.90
2018-04-02T04:38:20.331Z,99.90
2018-04-02T04:40:49.182Z,99.90
2018-04-02T04:43:17.955Z,99.90
2018-04-02T04:45:46.711Z,99.90
2018-04-02T04:48:16.329Z,99.90
2018-04-02T04:50:45.594Z,99.90
2018-04-02T04:53:14.109Z,99.90
2018-04-02T04:55:43.631Z,99.90
2018-04-02T04:58:13.140Z,99.90
2018-04-02T05:00:42.062Z,99.90
2018-04-02T05:03:10.838Z,99.90
2018-04-02T05:05:39.374Z,99.90
2018-04-02T05:08:08.886Z,99.90
2018-04-02T05:10:38.430Z,99.90
2018-04-02T05:13:07.200Z,99.90
2018-04-02T05:15:36.231Z,99.90
2018-04-02T05:18:04.985Z,99.90
2018-04-02T05:20:33.786Z,99.90
2018-04-02T05:23:02.529Z,99.90
2018-04-02T05:25:31.395Z,99.90
2018-04-02T05:28:00.338Z,99.90
2018-04-02T05:30:29.927Z,99.90
2018-04-02T05:32:58.766Z,99.90
2018-04-02T05:35:27.537Z,99.90
2018-04-02T05:37:57.102Z,99.90
2018-04-02T05:40:25.994Z,99.90
2018-04-02T05:42:54.794Z,99.90
2018-04-02T05:45:23.605Z,99.90
2018-04-02T05:47:53.139Z,99.90
2018-04-02T05:50:21.896Z,99.90
2018-04-02T05:52:51.419Z,99.90
2018-04-02T05:55:20.179Z,99.90
2018-04-02T05:57:49.233Z,99.90
2018-04-02T06:00:17.998Z,99.90
2018-04-02T06:02:46.761Z,99.90
2018-04-02T06:05:16.292Z,99.90
2018-04-02T06:07:46.099Z,99.90
2018-04-02T06:10:15.054Z,99.90
2018-04-02T06:12:43.820Z,99.90
2018-04-02T06:15:12.562Z,99.90
2018-04-02T06:17:42.194Z,99.90
2018-04-02T06:20:11.123Z,99.90
2018-04-02T06:22:39.878Z,99.90
2018-04-02T06:25:08.745Z,99.90
2018-04-02T06:27:38.279Z,99.90
2018-04-02T06:30:07.145Z,99.90
2018-04-02T06:32:36.713Z,99.90
2018-04-02T06:35:05.987Z,99.90
2018-04-02T06:37:34.730Z,99.90
2018-04-02T06:40:03.232Z,99.90
2018-04-02T06:42:32.751Z,99.90
2018-04-02T06:45:01.298Z,99.90
2018-04-02T06:47:29.874Z,99.90
2018-04-02T06:49:59.122Z,99.90
2018-04-02T06:52:27.867Z,99.90
2018-04-02T06:54:56.669Z,99.90
2018-04-02T06:57:25.222Z,99.90
2018-04-02T06:59:53.735Z,99.90
2018-04-02T07:02:22.198Z,99.90
2018-04-02T07:04:51.582Z,99.90
2018-04-02T07:07:20.135Z,99.90
2018-04-02T07:09:48.642Z,99.90
2018-04-02T07:12:17.138Z,99.90
2018-04-02T07:14:45.287Z,99.90
2018-04-02T07:17:13.774Z,99.90
2018-04-02T07:19:42.268Z,99.90
2018-04-02T07:22:11.271Z,99.90
2018-04-02T07:24:39.768Z,99.90
2018-04-02T07:27:09.062Z,99.90
2018-04-02T07:29:37.580Z,99.90
2018-04-02T07:32:06.068Z,99.90
2018-04-02T07:34:34.560Z,99.90
2018-04-02T07:37:03.054Z,99.90
2018-04-02T07:39:31.691Z,99.90
2018-04-02T07:42:01.010Z,99.90
2018-04-02T07:44:30.382Z,99.90
2018-04-02T07:46:59.334Z,99.90
2018-04-02T07:49:27.982Z,99.90
2018-04-02T07:51:57.227Z,99.90
2018-04-02T07:54:26.226Z,99.90
2018-04-02T07:56:55.097Z,99.90
2018-04-02T07:59:24.349Z,99.90
2018-04-02T08:01:53.263Z,99.90
2018-04-02T08:04:22.126Z,99.90
2018-04-02T08:06:51.398Z,99.90
2018-04-02T08:09:20.268Z,99.90
2018-04-02T08:11:49.532Z,99.90
2018-04-02T08:14:18.404Z,99.90
2018-04-02T08:16:47.296Z,99.90
2018-04-02T08:19:16.542Z,99.90
2018-04-02T08:21:45.456Z,99.90
2018-04-02T08:24:14.334Z,99.90
2018-04-02T08:26:43.627Z,99.90
2018-04-02T08:29:12.501Z,99.90
2018-04-02T08:31:41.775Z,99.90
2018-04-02T08:34:10.651Z,99.90
2018-04-02T08:36:39.517Z,99.90
2018-04-02T08:39:08.394Z,99.90
2018-04-02T08:41:37.628Z,99.90
2018-04-02T08:44:06.514Z,99.90
2018-04-02T08:46:35.378Z,99.90
2018-04-02T08:49:04.648Z,99.90
2018-04-02T08:51:33.979Z,99.90
2018-04-02T08:54:02.516Z,99.90
2018-04-02T08:56:31.162Z,99.90
2018-04-02T08:58:59.671Z,99.90
2018-04-02T09:01:28.331Z,99.90
2018-04-02T09:03:57.604Z,99.90
2018-04-02T09:06:26.418Z,99.90
2018-04-02T09:08:55.281Z,99.90
2018-04-02T09:11:24.548Z,99.90
2018-04-02T09:13:53.411Z,99.90
2018-04-02T09:16:22.290Z,99.90
2018-04-02T09:18:51.527Z,99.90
2018-04-02T09:21:20.480Z,99.90
2018-04-02T09:23:49.371Z,99.90
2018-04-02T09:26:18.400Z,99.90
2018-04-02T09:28:47.043Z,99.90
2018-04-02T09:31:16.080Z,99.90
2018-04-02T09:33:45.268Z,99.90
2018-04-02T09:36:14.499Z,99.90
2018-04-02T09:38:43.382Z,99.90
2018-04-02T09:41:12.738Z,99.90
2018-04-02T09:43:41.968Z,99.90
2018-04-02T09:46:10.446Z,99.90
2018-04-02T09:48:39.311Z,99.90
2018-04-02T09:51:08.599Z,99.90
2018-04-02T09:53:37.486Z,99.90
2018-04-02T09:56:06.358Z,99.90
2018-04-02T09:58:35.651Z,99.90
2018-04-02T10:01:04.287Z,99.90
2018-04-02T10:03:39.225Z,99.90
2018-04-02T10:06:08.478Z,99.90
2018-04-02T10:08:37.732Z,99.90
2018-04-02T10:11:07.532Z,99.90
2018-04-02T10:13:36.481Z,99.90
2018-04-02T10:16:05.194Z,99.90
2018-04-02T10:18:35.187Z,99.90
2018-04-02T10:21:03.739Z,99.90
2018-04-02T10:23:32.231Z,99.90
2018-04-02T10:26:00.722Z,99.90
2018-04-02T10:28:29.106Z,99.90
2018-04-02T10:30:57.691Z,99.90
2018-04-02T10:33:26.166Z,99.90
2018-04-02T10:35:54.690Z,99.90
2018-04-02T10:38:23.491Z,99.90
2018-04-02T10:40:52.785Z,99.90
2018-04-02T10:43:22.854Z,99.90
2018-04-02T10:45:51.363Z,99.90
2018-04-02T10:48:19.858Z,99.90
2018-04-02T10:50:48.325Z,99.90
2018-04-02T10:53:16.982Z,99.90
2018-04-02T10:55:45.478Z,99.90
2018-04-02T10:58:13.972Z,99.90
2018-04-02T11:00:42.459Z,99.90
2018-04-02T11:03:10.983Z,99.90
2018-04-02T11:05:39.873Z,99.90
2018-04-02T11:08:09.141Z,99.90
2018-04-02T11:10:37.750Z,99.90
2018-04-02T11:13:07.197Z,99.90
2018-04-02T11:15:35.739Z,99.90
2018-04-02T11:18:04.230Z,99.90
2018-04-02T11:20:33.239Z,99.90
2018-04-02T11:23:02.480Z,99.90
2018-04-02T11:25:30.974Z,99.90
2018-04-02T11:27:59.496Z,99.90
2018-04-02T11:30:28.386Z,99.90
2018-04-02T11:32:57.642Z,99.90
2018-04-02T11:35:26.144Z,99.90
2018-04-02T11:37:55.916Z,99.90
2018-04-02T11:40:24.814Z,99.90
2018-04-02T11:42:54.476Z,99.90
2018-04-02T11:45:23.863Z,99.90
2018-04-02T11:47:52.831Z,99.90
2018-04-02T11:50:21.859Z,99.90
2018-04-02T11:52:50.764Z,99.90
2018-04-02T11:55:19.663Z,99.90
2018-04-02T11:57:49.356Z,99.90
2018-04-02T12:00:17.827Z,99.90
2018-04-02T12:02:46.721Z,99.90
2018-04-02T12:05:15.724Z,99.90
2018-04-02T12:07:45.033Z,99.90
2018-04-02T12:10:13.908Z,98.10
2018-04-02T12:12:42.936Z,98.40
2018-04-02T12:15:11.893Z,99.90
2018-04-02T12:17:41.178Z,99.90
2018-04-02T12:20:09.652Z,99.90
2018-04-02T12:22:38.937Z,99.90
2018-04-02T12:25:07.840Z,99.90
2018-04-02T12:27:36.727Z,99.90
2018-04-02T12:30:05.845Z,99.90
2018-04-02T12:32:34.752Z,99.90
2018-04-02T12:35:03.859Z,99.90
2018-04-02T12:37:32.726Z,92.80
2018-04-02T12:40:01.616Z,81.10
2018-04-02T12:42:30.858Z,56.10
2018-04-02T12:44:59.732Z,96.30
2018-04-02T12:47:29.028Z,67.00
2018-04-02T12:49:58.094Z,94.50
2018-04-02T12:52:26.945Z,93.10
2018-04-02T12:54:55.868Z,71.80
2018-04-02T12:57:24.513Z,59.90
2018-04-02T12:59:53.982Z,65.30
2018-04-02T13:02:22.859Z,84.30
2018-04-02T13:04:51.758Z,98.50
2018-04-02T13:07:20.626Z,67.60
2018-04-02T13:09:49.886Z,92.00
2018-04-02T13:12:18.770Z,86.90
2018-04-02T13:14:47.663Z,58.70
2018-04-02T13:17:16.909Z,58.00
2018-04-02T13:19:45.586Z,51.80
2018-04-02T13:22:14.823Z,54.40
2018-04-02T13:24:43.720Z,61.70
2018-04-02T13:27:13.548Z,48.80
2018-04-02T13:29:42.852Z,51.90
2018-04-02T13:32:11.930Z,42.40
2018-04-02T13:34:40.794Z,44.40
2018-04-02T13:37:09.696Z,47.70
2018-04-02T13:39:38.990Z,44.10
2018-04-02T13:42:07.902Z,40.70
2018-04-02T13:44:36.814Z,45.40
2018-04-02T13:47:05.739Z,38.90
2018-04-02T13:49:34.652Z,49.50
2018-04-02T13:52:03.878Z,42.20
2018-04-02T13:54:32.822Z,46.00
2018-04-02T13:57:01.716Z,48.80
2018-04-02T13:59:30.636Z,42.80
2018-04-02T14:01:59.949Z,43.70
2018-04-02T14:04:28.911Z,40.10
2018-04-02T14:06:57.791Z,41.70
2018-04-02T14:09:27.411Z,43.80
2018-04-02T14:11:56.681Z,39.90
2018-04-02T14:14:25.758Z,39.50
2018-04-02T14:16:54.732Z,41.50
2018-04-02T14:19:23.606Z,43.70
2018-04-02T14:21:52.859Z,46.80
2018-04-02T14:24:23.870Z,47.80
2018-04-02T14:26:53.140Z,49.00
2018-04-02T14:29:21.786Z,48.20
2018-04-02T14:31:51.039Z,51.80
2018-04-02T14:34:20.286Z,48.60
2018-04-02T14:36:48.852Z,46.30
2018-04-02T14:39:17.756Z,43.50
2018-04-02T14:41:47.011Z,48.60
2018-04-02T14:44:15.894Z,49.00
2018-04-02T14:46:44.818Z,42.70
2018-04-02T14:49:14.124Z,48.60
2018-04-02T14:51:42.742Z,45.00
2018-04-02T14:54:11.615Z,47.00
2018-04-02T14:56:40.584Z,46.80
2018-04-02T14:59:09.471Z,48.10
2018-04-02T15:01:38.343Z,47.00
2018-04-02T15:04:07.602Z,47.40
2018-04-02T15:06:36.483Z,47.70
2018-04-02T15:09:05.138Z,50.50
2018-04-02T15:11:34.430Z,47.10
2018-04-02T15:14:03.411Z,41.20
2018-04-02T15:16:32.282Z,44.80
2018-04-02T15:19:01.552Z,42.00
2018-04-02T15:21:30.810Z,44.40
2018-04-02T15:23:59.691Z,41.50
2018-04-02T15:26:28.187Z,43.40
2018-04-02T15:28:57.102Z,45.70
2018-04-02T15:31:26.411Z,44.20
2018-04-02T15:33:55.926Z,45.10
2018-04-02T15:36:25.235Z,43.60
2018-04-02T15:38:54.126Z,47.30
2018-04-02T15:41:23.018Z,43.20
